Time;durP1;ratioP1;P1;durP2;ratioP2;P2;SDS_P1;SDS_P2;PMS_P1;PMS_P2;Temp;Humidity;BMP_temperature;BMP_pressure;BME280_temperature;BME280_humidity;BME280_pressure;Samples;Min_cycle;Max_cycle;Signal;HPM_P1;HPM_P2
2022/07/11 00:02:13;;;;;;;17.73;13.50;;;;;;;21.29;88.61;99666.91;1692133;83;20904;-87
2022/07/11 00:04:40;;;;;;;25.72;14.87;;;;;;;21.31;88.60;99668.06;1718864;83;20932;-86
2022/07/11 00:07:07;;;;;;;17.75;14.18;;;;;;;21.31;88.63;99655.55;1717927;83;21480;-87
2022/07/11 00:09:34;;;;;;;18.90;14.47;;;;;;;21.32;88.42;99653.70;1717771;83;21161;-86
2022/07/11 00:12:03;;;;;;;19.05;13.60;;;;;;;21.30;88.66;99659.23;1718404;82;21366;-87
2022/07/11 00:14:30;;;;;;;16.85;11.90;;;;;;;21.26;88.80;99655.28;1726714;82;21464;-87
2022/07/11 00:16:59;;;;;;;14.65;12.43;;;;;;;21.25;89.18;99660.28;1726619;83;20991;-87
2022/07/11 00:19:27;;;;;;;14.90;11.18;;;;;;;21.25;89.38;99652.80;1726674;83;21524;-87
2022/07/11 00:21:56;;;;;;;16.40;11.90;;;;;;;21.23;89.63;99653.00;1726629;83;21156;-88
2022/07/11 00:24:24;;;;;;;12.10;10.55;;;;;;;21.23;89.85;99654.81;1726614;83;20927;-88
2022/07/11 00:26:53;;;;;;;13.22;10.25;;;;;;;21.23;90.15;99651.66;1726666;83;21350;-88
2022/07/11 00:29:20;;;;;;;15.72;10.60;;;;;;;21.24;90.45;99653.30;1726605;83;20943;-88
2022/07/11 00:31:47;;;;;;;17.50;11.30;;;;;;;21.25;90.57;99657.61;1726577;83;20951;-87
2022/07/11 00:34:15;;;;;;;10.88;9.90;;;;;;;21.25;90.66;99653.61;1727267;82;21168;-87
2022/07/11 00:36:42;;;;;;;10.58;9.48;;;;;;;21.27;90.71;99657.44;1727299;82;20923;-89
2022/07/11 00:39:10;;;;;;;13.90;10.60;;;;;;;21.26;90.62;99651.80;1726819;83;20983;-88
2022/07/11 00:41:37;;;;;;;13.58;10.60;;;;;;;21.28;90.77;99653.27;1726692;83;21034;-88
2022/07/11 00:44:05;;;;;;;11.33;10.32;;;;;;;21.29;90.61;99644.75;1726730;83;20896;-89
2022/07/11 00:46:33;;;;;;;11.57;9.80;;;;;;;21.29;90.59;99646.08;1726589;82;21158;-87
2022/07/11 00:49:01;;;;;;;12.70;9.35;;;;;;;21.30;90.62;99646.42;1726578;83;20940;-88
2022/07/11 00:51:29;;;;;;;12.30;10.23;;;;;;;21.30;90.75;99638.42;1726509;82;20983;-89
2022/07/11 00:53:57;;;;;;;10.68;9.55;;;;;;;21.32;90.97;99636.36;1726607;83;20947;-88
2022/07/11 00:56:26;;;;;;;12.07;10.80;;;;;;;21.34;90.98;99633.01;1726603;83;20884;-89
2022/07/11 00:58:54;;;;;;;11.00;9.95;;;;;;;21.36;90.97;99634.98;1726682;83;21250;-88
2022/07/11 01:01:21;;;;;;;12.10;11.03;;;;;;;21.37;91.01;99633.98;1697980;83;20903;-89
2022/07/11 01:03:48;;;;;;;14.80;11.85;;;;;;;21.38;90.93;99628.95;1726493;83;20971;-89
2022/07/11 01:06:15;;;;;;;12.07;9.88;;;;;;;21.39;90.99;99627.11;1726564;83;20901;-89
2022/07/11 01:08:42;;;;;;;11.55;10.43;;;;;;;21.40;90.98;99624.27;1726490;83;20899;-86
2022/07/11 01:11:12;;;;;;;11.33;10.13;;;;;;;21.40;90.89;99618.11;1726510;83;21253;-89
2022/07/11 01:13:40;;;;;;;11.12;9.33;;;;;;;21.37;90.78;99621.16;1726412;81;20885;-88
2022/07/11 01:16:22;;;;;;;10.82;9.65;;;;;;;21.34;90.81;99619.67;1726563;83;20943;-88
2022/07/11 01:18:54;;;;;;;10.68;9.73;;;;;;;21.33;90.88;99620.19;1726600;83;21019;-89
2022/07/11 01:21:32;;;;;;;11.10;10.03;;;;;;;21.32;91.14;99614.55;1726590;83;20916;-88
2022/07/11 01:24:00;;;;;;;11.78;9.38;;;;;;;21.34;91.19;99614.34;1726652;83;21189;-88
2022/07/11 01:28:10;;;;;;;10.80;9.60;;;;;;;21.41;91.50;99601.11;1854570;76;22657;-88
2022/07/11 01:30:38;;;;;;;11.00;9.88;;;;;;;21.37;91.61;99605.98;1822375;78;20891;-87
2022/07/11 01:33:06;;;;;;;11.28;10.18;;;;;;;21.39;91.67;99607.95;1822620;78;21243;-87
2022/07/11 01:35:33;;;;;;;10.65;9.70;;;;;;;21.40;91.61;99605.59;1823140;78;20872;-86
2022/07/11 01:38:00;;;;;;;12.03;10.80;;;;;;;21.39;91.41;99599.95;1823121;78;20962;-87
2022/07/11 01:40:27;;;;;;;10.88;9.98;;;;;;;21.39;91.63;99604.44;1822405;78;21461;-87
2022/07/11 01:42:53;;;;;;;11.83;9.88;;;;;;;21.40;91.66;99602.11;1822275;78;20962;-87
2022/07/11 01:45:21;;;;;;;11.20;10.08;;;;;;;21.39;91.73;99597.77;1822248;78;21129;-87
2022/07/11 01:47:49;;;;;;;9.85;8.85;;;;;;;21.39;91.79;99602.63;1822185;78;20915;-86
2022/07/11 01:50:16;;;;;;;10.95;10.03;;;;;;;21.39;91.99;99606.63;1818460;78;21429;-86
2022/07/11 01:52:43;;;;;;;10.75;9.83;;;;;;;21.39;92.07;99603.11;1823169;78;20935;-86
2022/07/11 01:55:12;;;;;;;10.10;9.33;;;;;;;21.39;91.94;99604.44;1822510;78;21582;-88
2022/07/11 01:57:39;;;;;;;10.20;9.18;;;;;;;21.40;91.69;99600.26;1822222;78;21283;-86
2022/07/11 02:00:10;;;;;;;9.78;8.88;;;;;;;21.39;91.42;99607.95;1822241;78;21481;-87
2022/07/11 02:02:37;;;;;;;10.60;9.50;;;;;;;21.37;91.42;99613.98;1822110;78;20923;-88
2022/07/11 02:05:05;;;;;;;9.18;8.25;;;;;;;21.38;91.12;99610.80;1822282;78;21381;-87
2022/07/11 02:10:17;;;;;;;13.48;9.40;;;;;;;21.36;90.88;99609.64;1822401;78;21126;-88
2022/07/11 02:12:44;;;;;;;10.75;9.65;;;;;;;21.35;91.11;99613.85;1822258;78;20860;-88
2022/07/11 02:15:11;;;;;;;10.03;9.18;;;;;;;21.33;91.33;99614.84;1822403;78;20895;-87
2022/07/11 02:17:38;;;;;;;10.85;9.80;;;;;;;21.33;91.49;99618.03;1822232;78;20923;-87
2022/07/11 02:20:07;;;;;;;11.10;9.50;;;;;;;21.35;91.65;99617.34;1822304;78;20918;-88
2022/07/11 02:22:34;;;;;;;10.63;9.73;;;;;;;21.36;91.83;99614.16;1822183;78;21798;-87
2022/07/11 02:25:01;;;;;;;10.45;9.60;;;;;;;21.36;91.86;99608.31;1822200;78;20915;-87
2022/07/11 02:27:29;;;;;;;12.60;9.70;;;;;;;21.37;91.68;99605.98;1821978;78;21373;-88
2022/07/11 02:29:55;;;;;;;10.88;9.83;;;;;;;21.36;91.80;99604.83;1822036;78;20960;-88
2022/07/11 02:32:22;;;;;;;11.28;9.80;;;;;;;21.35;91.78;99610.67;1822177;78;20926;-87
2022/07/11 02:34:50;;;;;;;10.50;9.53;;;;;;;21.34;91.61;99609.00;1822954;78;21096;-84
2022/07/11 02:37:19;;;;;;;15.35;9.03;;;;;;;21.32;91.51;99610.55;1823919;78;20928;-87
2022/07/11 02:39:47;;;;;;;10.30;9.23;;;;;;;21.31;91.41;99612.05;1821661;78;20923;-88
2022/07/11 02:42:14;;;;;;;10.95;9.85;;;;;;;21.28;91.59;99615.11;1821647;78;20939;-88
2022/07/11 02:44:41;;;;;;;11.57;9.75;;;;;;;21.28;91.70;99616.44;1821571;78;20883;-88
2022/07/11 02:47:08;;;;;;;11.18;10.10;;;;;;;21.30;91.66;99617.08;1822507;78;21216;-88
2022/07/11 02:49:34;;;;;;;14.25;9.83;;;;;;;21.32;91.71;99619.03;1821607;78;20872;-88
2022/07/11 02:52:02;;;;;;;10.98;9.88;;;;;;;21.33;91.77;99622.03;1821497;78;20887;-88
2022/07/11 02:54:29;;;;;;;12.68;9.98;;;;;;;21.36;91.83;99622.98;1821547;78;20911;-88
2022/07/11 02:56:56;;;;;;;10.70;9.78;;;;;;;21.38;91.85;99624.14;1821665;78;20990;-89
2022/07/11 02:59:23;;;;;;;11.95;9.18;;;;;;;21.39;91.79;99623.11;1821454;78;21323;-88
2022/07/11 03:01:50;;;;;;;10.15;9.30;;;;;;;21.39;91.62;99627.95;1821600;78;20912;-88
2022/07/11 03:04:17;;;;;;;12.00;9.90;;;;;;;21.40;91.72;99631.45;1821721;78;20927;-90
2022/07/11 03:06:44;;;;;;;10.80;9.58;;;;;;;21.40;91.49;99632.27;1821607;78;21006;-89
2022/07/11 03:09:11;;;;;;;11.63;8.50;;;;;;;21.39;91.04;99638.62;1821623;78;20863;-87
2022/07/11 03:11:38;;;;;;;9.65;8.65;;;;;;;21.36;91.14;99631.50;1821640;78;21125;-88
2022/07/11 03:14:05;;;;;;;10.55;9.58;;;;;;;21.30;91.21;99632.57;1821507;78;20966;-88
2022/07/11 03:16:32;;;;;;;11.57;10.08;;;;;;;21.27;91.34;99631.59;1821727;78;21380;-87
2022/07/11 03:18:59;;;;;;;10.50;9.43;;;;;;;21.25;91.85;99627.45;1821614;78;20935;-88
2022/07/11 03:21:28;;;;;;;11.22;9.25;;;;;;;21.25;92.32;99626.13;1821669;78;20844;-87
2022/07/11 03:23:55;;;;;;;13.10;10.03;;;;;;;21.23;92.29;99633.00;1821856;78;20927;-89
2022/07/11 03:26:22;;;;;;;12.25;10.10;;;;;;;21.24;92.62;99630.64;1821679;78;20872;-87
2022/07/11 03:28:50;;;;;;;18.62;13.65;;;;;;;21.24;92.66;99639.97;1825088;78;20915;-88
2022/07/11 03:31:18;;;;;;;12.85;9.85;;;;;;;21.26;92.73;99636.61;1825198;78;21409;-88
2022/07/11 03:33:45;;;;;;;10.68;9.60;;;;;;;21.28;92.57;99633.77;1825274;78;21384;-88
2022/07/11 03:36:12;;;;;;;10.05;9.10;;;;;;;21.30;92.38;99631.75;1825613;78;21226;-88
2022/07/11 03:38:39;;;;;;;13.32;9.48;;;;;;;21.31;92.33;99625.39;1825582;77;20947;-89
2022/07/11 03:41:06;;;;;;;10.63;9.30;;;;;;;21.31;92.11;99627.55;1825278;78;20966;-88
2022/07/11 03:43:34;;;;;;;9.10;7.87;;;;;;;21.31;91.84;99626.21;1825252;78;21385;-89
2022/07/11 03:46:01;;;;;;;11.22;9.35;;;;;;;21.30;91.84;99633.91;1825078;77;20863;-89
2022/07/11 03:48:28;;;;;;;11.08;8.58;;;;;;;21.27;91.69;99631.59;1825025;78;21084;-88
2022/07/11 03:50:55;;;;;;;11.20;8.50;;;;;;;21.25;91.47;99631.45;1825155;78;20912;-88
2022/07/11 03:53:22;;;;;;;9.75;8.48;;;;;;;21.23;91.56;99626.33;1825103;77;21377;-89
2022/07/11 03:55:49;;;;;;;9.43;8.45;;;;;;;21.22;91.42;99635.84;1825158;77;21513;-89
2022/07/11 03:58:16;;;;;;;8.05;7.35;;;;;;;21.22;91.53;99629.17;1825262;77;21006;-89
2022/07/11 04:00:43;;;;;;;8.03;7.20;;;;;;;21.21;91.51;99629.69;1825129;77;21215;-89
2022/07/11 04:03:10;;;;;;;8.15;7.45;;;;;;;21.18;91.25;99626.04;1824999;77;20908;-88
2022/07/11 04:05:38;;;;;;;10.25;7.70;;;;;;;21.15;91.28;99626.42;1825051;78;20959;-89
2022/07/11 04:08:05;;;;;;;8.23;7.45;;;;;;;21.14;91.48;99630.08;1825124;77;20911;-89
2022/07/11 04:10:32;;;;;;;8.65;7.90;;;;;;;21.12;91.53;99632.11;1825133;78;20919;-88
2022/07/11 04:13:00;;;;;;;11.95;8.25;;;;;;;21.10;91.92;99626.98;1825231;77;21251;-88
2022/07/11 04:15:27;;;;;;;9.63;8.73;;;;;;;21.12;92.22;99629.44;1825366;77;20879;-89
2022/07/11 04:17:54;;;;;;;10.13;7.53;;;;;;;21.17;92.40;99628.40;1826265;78;20982;-87
2022/07/11 04:20:21;;;;;;;9.73;8.05;;;;;;;21.20;92.21;99625.35;1827680;78;20931;-86
2022/07/11 04:22:49;;;;;;;9.43;6.35;;;;;;;21.23;91.75;99630.81;1826513;77;20923;-86
2022/07/11 04:25:16;;;;;;;9.20;8.18;;;;;;;21.22;91.62;99628.66;1825772;77;22024;-85
2022/07/11 04:27:42;;;;;;;7.70;6.92;;;;;;;21.23;91.46;99629.48;1825747;78;20903;-86
2022/07/11 04:30:10;;;;;;;8.90;8.00;;;;;;;21.24;91.25;99630.64;1825603;78;20958;-87
2022/07/11 04:32:37;;;;;;;9.38;6.72;;;;;;;21.24;91.13;99629.30;1825742;78;21502;-88
2022/07/11 04:35:05;;;;;;;8.08;7.20;;;;;;;21.24;90.92;99631.97;1826055;78;20915;-86
2022/07/11 04:37:33;;;;;;;8.20;6.85;;;;;;;21.24;90.83;99630.64;1825973;78;22720;-86
2022/07/11 04:40:00;;;;;;;10.30;7.33;;;;;;;21.26;90.91;99625.13;1825313;78;20962;-88
2022/07/11 04:42:26;;;;;;;7.62;6.50;;;;;;;21.28;91.02;99632.44;1825143;78;20959;-87
2022/07/11 04:44:53;;;;;;;7.78;6.92;;;;;;;21.30;90.98;99627.75;1825134;78;20856;-87
2022/07/11 04:47:20;;;;;;;7.80;6.45;;;;;;;21.33;90.40;99635.36;1825255;78;21452;-88
2022/07/11 04:49:47;;;;;;;9.30;7.55;;;;;;;21.31;90.04;99636.88;1825183;78;21270;-87
2022/07/11 04:52:14;;;;;;;8.43;7.62;;;;;;;21.32;90.00;99641.22;1825684;78;20836;-87
2022/07/11 04:54:41;;;;;;;8.10;6.90;;;;;;;21.34;89.68;99641.00;1825756;78;21432;-86
2022/07/11 04:57:08;;;;;;;7.30;6.58;;;;;;;21.34;89.43;99651.67;1825038;78;20895;-88
2022/07/11 04:59:36;;;;;;;10.68;6.65;;;;;;;21.32;89.21;99655.03;1825142;78;20955;-85
2022/07/11 05:02:03;;;;;;;10.05;7.42;;;;;;;21.32;89.61;99659.03;1825086;78;21140;-87
2022/07/11 05:04:30;;;;;;;11.18;7.78;;;;;;;21.32;89.75;99655.03;1825152;78;20970;-86
2022/07/11 05:06:57;;;;;;;8.73;7.87;;;;;;;21.37;89.66;99661.17;1824980;78;20892;-87
2022/07/11 05:09:24;;;;;;;9.53;8.20;;;;;;;21.40;89.78;99663.45;1825164;78;20923;-88
2022/07/11 05:11:51;;;;;;;10.00;8.90;;;;;;;21.42;89.85;99660.95;1825362;78;20915;-87
2022/07/11 05:14:18;;;;;;;8.45;7.67;;;;;;;21.45;89.88;99662.41;1825345;78;21354;-88
2022/07/11 05:16:46;;;;;;;7.42;6.60;;;;;;;21.48;89.73;99661.55;1825250;78;20919;-87
2022/07/11 05:19:13;;;;;;;8.10;7.30;;;;;;;21.48;89.23;99656.21;1825299;78;21069;-87
2022/07/11 05:21:40;;;;;;;7.97;7.17;;;;;;;21.47;89.19;99665.21;1825522;78;20916;-87
2022/07/11 05:24:07;;;;;;;10.25;7.90;;;;;;;21.47;89.13;99666.55;1825259;78;20875;-88
2022/07/11 05:26:36;;;;;;;8.93;8.13;;;;;;;21.46;89.11;99663.57;1825340;78;21950;-88
2022/07/11 05:29:03;;;;;;;10.90;7.75;;;;;;;21.46;89.39;99670.23;1822043;78;20907;-86
2022/07/11 05:31:33;;;;;;;9.95;8.95;;;;;;;21.48;89.47;99666.06;1822079;78;20911;-87
2022/07/11 05:33:58;;;;;;;9.10;8.23;;;;;;;21.51;89.39;99665.16;1821898;78;20875;-85
2022/07/11 05:36:25;;;;;;;10.90;8.33;;;;;;;21.56;89.44;99663.78;1822172;78;20872;-85
2022/07/11 05:38:52;;;;;;;9.90;8.53;;;;;;;21.60;89.29;99666.40;1822130;78;21056;-88
2022/07/11 05:41:19;;;;;;;10.03;9.08;;;;;;;21.61;89.00;99659.55;1821775;78;20943;-89
2022/07/11 05:43:46;;;;;;;9.03;8.23;;;;;;;21.64;89.16;99663.17;1821615;78;20959;-87
2022/07/11 05:46:13;;;;;;;9.18;8.33;;;;;;;21.68;88.93;99672.45;1821500;78;20926;-87
2022/07/11 05:48:41;;;;;;;10.00;8.93;;;;;;;21.70;88.58;99673.61;1822232;78;20899;-88
2022/07/11 05:51:08;;;;;;;8.83;8.03;;;;;;;21.71;88.45;99670.73;1821694;78;21277;-87
2022/07/11 05:53:35;;;;;;;8.45;7.65;;;;;;;21.71;88.64;99672.06;1821720;78;20911;-88
2022/07/11 05:56:02;;;;;;;8.95;8.05;;;;;;;21.75;88.73;99677.05;1823398;78;20895;-87
2022/07/11 05:58:29;;;;;;;9.25;7.85;;;;;;;21.79;88.44;99675.63;1822913;78;21444;-87
2022/07/11 06:00:58;;;;;;;8.73;7.20;;;;;;;21.82;87.62;99678.77;1821744;78;20962;-84
2022/07/11 06:03:25;;;;;;;10.53;7.60;;;;;;;21.84;86.88;99684.74;1821593;78;21232;-88
2022/07/11 06:05:54;;;;;;;7.60;6.95;;;;;;;21.84;86.30;99686.59;1821484;78;21423;-87
2022/07/11 06:11:06;;;;;;;8.83;7.92;;;;;;;21.80;86.00;99680.80;1821614;78;20967;-87
2022/07/11 06:13:33;;;;;;;8.43;7.15;;;;;;;21.78;86.15;99688.16;1821909;78;20880;-87
2022/07/11 06:16:00;;;;;;;10.43;7.37;;;;;;;21.74;86.15;99686.88;1822031;78;21118;-88
2022/07/11 06:18:27;;;;;;;8.23;7.53;;;;;;;21.72;86.38;99690.23;1821933;78;20931;-90
2022/07/11 06:20:54;;;;;;;9.00;7.90;;;;;;;21.69;86.44;99691.44;1822335;78;20880;-86
2022/07/11 06:23:21;;;;;;;8.00;7.20;;;;;;;21.66;86.65;99689.67;1822405;78;20852;-88
2022/07/11 06:25:48;;;;;;;10.82;7.08;;;;;;;21.65;86.56;99688.00;1822272;78;20876;-88
2022/07/11 06:28:15;;;;;;;9.78;8.40;;;;;;;21.65;86.39;99687.48;1823705;78;21151;-87
2022/07/11 06:30:43;;;;;;;10.25;7.30;;;;;;;21.66;86.29;99691.83;1825701;78;20974;-88
2022/07/11 06:33:10;;;;;;;7.45;6.22;;;;;;;21.67;86.22;99691.31;1825834;78;20985;-89
2022/07/11 06:35:37;;;;;;;7.25;6.42;;;;;;;21.69;86.28;99689.28;1825963;78;21483;-86
2022/07/11 06:38:04;;;;;;;9.38;7.87;;;;;;;21.69;86.40;99697.30;1826041;78;20871;-87
2022/07/11 06:40:31;;;;;;;14.95;7.25;;;;;;;21.70;86.44;99704.30;1825871;78;21139;-89
2022/07/11 06:42:58;;;;;;;7.78;6.60;;;;;;;21.71;86.63;99696.60;1825670;78;20939;-88
2022/07/11 06:45:25;;;;;;;7.60;6.85;;;;;;;21.79;86.61;99707.18;1825365;78;21425;-88
2022/07/11 06:47:52;;;;;;;8.03;7.33;;;;;;;21.84;86.23;99712.77;1825537;78;21480;-87
2022/07/11 06:50:20;;;;;;;7.53;6.92;;;;;;;21.87;85.81;99712.90;1825716;78;20959;-88
2022/07/11 06:52:47;;;;;;;7.58;6.47;;;;;;;21.89;85.50;99718.36;1826092;78;21897;-89
2022/07/11 06:55:15;;;;;;;9.03;6.75;;;;;;;21.92;85.08;99712.67;1826326;78;20952;-87
2022/07/11 06:57:42;;;;;;;7.53;6.83;;;;;;;21.93;84.89;99717.49;1825376;78;20848;-85
2022/07/11 07:00:11;;;;;;;9.10;7.10;;;;;;;21.93;84.70;99715.64;1825567;78;20935;-87
2022/07/11 07:02:40;;;;;;;7.45;6.75;;;;;;;21.96;84.70;99720.29;1825466;78;20923;-88
2022/07/11 07:05:07;;;;;;;16.45;7.83;;;;;;;21.97;84.59;99722.78;1825685;78;20915;-88
2022/07/11 07:07:35;;;;;;;10.03;7.10;;;;;;;21.99;84.40;99725.24;1825328;78;20911;-87
2022/07/11 07:10:03;;;;;;;9.15;7.40;;;;;;;21.99;84.27;99723.91;1825362;78;20883;-88
2022/07/11 07:12:31;;;;;;;7.65;6.28;;;;;;;21.97;83.96;99722.78;1825509;78;21383;-87
2022/07/11 07:15:00;;;;;;;7.53;6.83;;;;;;;21.94;83.90;99721.80;1825355;78;20978;-88
2022/07/11 07:17:27;;;;;;;7.25;6.55;;;;;;;21.90;83.86;99717.37;1825586;78;22025;-88
2022/07/11 07:19:54;;;;;;;8.05;7.10;;;;;;;21.88;84.02;99727.92;1825464;78;20872;-88
2022/07/11 07:22:21;;;;;;;8.43;6.90;;;;;;;21.86;84.14;99715.27;1825498;78;20911;-88
2022/07/11 07:24:47;;;;;;;8.53;6.78;;;;;;;21.85;84.19;99724.27;1825474;78;20923;-89
2022/07/11 07:27:14;;;;;;;8.08;6.78;;;;;;;21.84;84.21;99721.30;1825369;78;20926;-89
2022/07/11 07:29:41;;;;;;;7.67;6.83;;;;;;;21.82;84.40;99717.47;1822221;78;21068;-87
2022/07/11 07:32:08;;;;;;;7.70;6.75;;;;;;;21.78;84.56;99716.18;1821894;78;21477;-89
2022/07/11 07:34:36;;;;;;;8.88;7.53;;;;;;;21.73;84.86;99709.25;1821958;78;21025;-87
2022/07/11 07:37:03;;;;;;;8.08;6.72;;;;;;;21.71;85.16;99699.27;1822270;78;20880;-86
2022/07/11 07:39:30;;;;;;;8.35;7.58;;;;;;;21.74;85.38;99697.55;1822550;78;21477;-86
2022/07/11 07:41:57;;;;;;;7.58;6.95;;;;;;;21.80;85.52;99699.48;1822389;78;21081;-88
2022/07/11 07:44:24;;;;;;;8.05;7.25;;;;;;;21.88;85.36;99703.89;1821954;78;20959;-87
2022/07/11 07:46:51;;;;;;;8.45;7.70;;;;;;;21.97;85.33;99704.61;1821833;78;20923;-88
2022/07/11 07:49:18;;;;;;;9.08;6.70;;;;;;;22.07;85.03;99709.11;1822560;78;20955;-86
2022/07/11 07:51:45;;;;;;;8.78;7.50;;;;;;;22.14;84.71;99701.51;1823016;78;21390;-86
2022/07/11 07:54:13;;;;;;;8.33;6.55;;;;;;;22.19;84.52;99706.28;1822880;78;21224;-88
2022/07/11 07:56:40;;;;;;;7.70;7.10;;;;;;;22.26;84.23;99706.38;1822186;78;21480;-87
2022/07/11 07:59:07;;;;;;;7.87;6.12;;;;;;;22.32;83.66;99705.10;1822093;78;21452;-88
2022/07/11 08:01:34;;;;;;;9.38;6.60;;;;;;;22.37;83.18;99715.70;1822338;78;20864;-88
2022/07/11 08:04:09;;;;;;;5.65;5.25;;;;;;;22.37;82.98;99719.22;1822248;78;20958;-88
2022/07/11 08:06:36;;;;;;;11.25;5.87;;;;;;;22.41;82.80;99720.50;1822424;78;22256;-89
2022/07/11 08:09:04;;;;;;;6.53;5.70;;;;;;;22.45;82.27;99720.41;1822162;78;20907;-88
2022/07/11 08:11:32;;;;;;;8.58;5.92;;;;;;;22.48;81.66;99717.89;1822098;78;20903;-89
2022/07/11 08:13:59;;;;;;;8.03;6.00;;;;;;;22.51;81.01;99722.83;1822293;78;20892;-88
2022/07/11 08:16:30;;;;;;;7.60;5.60;;;;;;;22.51;81.09;99726.84;1822415;78;21002;-89
2022/07/11 08:18:59;;;;;;;6.15;5.40;;;;;;;22.52;81.21;99728.48;1822744;78;21143;-88
2022/07/11 08:21:27;;;;;;;5.65;5.15;;;;;;;22.54;81.30;99735.31;1822206;78;20993;-88
2022/07/11 08:23:55;;;;;;;7.08;5.15;;;;;;;22.58;81.03;99737.08;1822276;78;21345;-88
2022/07/11 08:26:22;;;;;;;9.38;6.87;;;;;;;22.61;80.59;99735.38;1822507;78;20994;-88
2022/07/11 08:28:51;;;;;;;5.45;4.85;;;;;;;22.62;80.40;99739.69;1823464;78;20931;-88
2022/07/11 08:31:19;;;;;;;6.08;5.58;;;;;;;22.63;80.17;99739.98;1826291;78;21900;-89
2022/07/11 08:33:46;;;;;;;10.50;7.05;;;;;;;22.63;80.32;99737.84;1826186;78;21017;-89
2022/07/11 08:36:13;;;;;;;7.90;5.53;;;;;;;22.65;80.42;99733.95;1826114;78;20879;-88
2022/07/11 08:38:43;;;;;;;5.45;4.92;;;;;;;22.71;80.37;99733.70;1827538;78;20896;-87
2022/07/11 08:41:11;;;;;;;9.20;5.87;;;;;;;22.75;80.25;99726.44;1827939;78;21469;-87
2022/07/11 08:43:38;;;;;;;6.45;5.92;;;;;;;22.80;79.74;99727.70;1826890;78;21229;-88
2022/07/11 08:46:08;;;;;;;6.45;4.97;;;;;;;22.83;79.51;99730.80;1826422;78;21046;-90
2022/07/11 08:48:39;;;;;;;10.28;5.25;;;;;;;22.83;79.22;99736.14;1825890;78;20891;-90
2022/07/11 08:51:07;;;;;;;6.60;4.67;;;;;;;22.80;79.07;99733.87;1826765;78;20970;-90
2022/07/11 08:53:44;;;;;;;7.75;6.37;;;;;;;22.75;78.91;99737.13;1827004;78;20895;-90
2022/07/11 08:56:16;;;;;;;6.03;5.47;;;;;;;22.70;78.91;99742.72;1827403;78;21242;-89
2022/07/11 08:58:46;;;;;;;6.95;4.80;;;;;;;22.69;78.84;99745.09;1826589;78;20935;-89
2022/07/11 09:01:19;;;;;;;7.17;5.35;;;;;;;22.69;78.87;99745.91;1826933;78;20922;-91
2022/07/11 09:03:46;;;;;;;12.95;5.97;;;;;;;22.71;78.81;99744.39;1826477;78;20892;-89
2022/07/11 09:06:15;;;;;;;6.12;5.45;;;;;;;22.73;78.54;99745.03;1826245;78;20994;-90
2022/07/11 09:08:43;;;;;;;5.58;4.78;;;;;;;22.74;78.45;99747.52;1825964;78;21248;-91
2022/07/11 09:11:10;;;;;;;9.60;5.37;;;;;;;22.75;78.40;99745.66;1826072;78;20919;-90
2022/07/11 09:13:38;;;;;;;18.32;6.83;;;;;;;22.73;78.70;99747.19;1826189;78;20859;-91
2022/07/11 09:16:07;;;;;;;8.03;5.62;;;;;;;22.72;78.77;99744.20;1826210;78;20876;-90
2022/07/11 09:18:40;;;;;;;50.90;10.60;;;;;;;22.75;78.79;99747.82;1826641;78;21013;-90
2022/07/11 09:26:48;;;;;;;6.75;5.05;;;;;;;22.89;78.68;99748.75;1826546;78;20880;-89
2022/07/11 09:29:18;;;;;;;7.30;4.70;;;;;;;23.00;78.77;99747.42;1826514;78;21321;-90
2022/07/11 09:31:45;;;;;;;6.05;4.87;;;;;;;23.10;78.41;99745.25;1826367;78;20852;-90
2022/07/11 09:34:16;;;;;;;6.00;4.40;;;;;;;23.21;77.87;99747.05;1826465;78;20875;-90
2022/07/11 09:36:56;;;;;;;5.70;5.20;;;;;;;23.29;77.49;99746.38;1826397;78;20903;-87
2022/07/11 09:39:28;;;;;;;7.35;6.65;;;;;;;23.35;77.16;99752.30;1826368;78;20887;-90
2022/07/11 09:41:56;;;;;;;7.28;4.78;;;;;;;23.44;76.68;99752.97;1826674;78;20911;-90
2022/07/11 09:44:31;;;;;;;5.28;4.78;;;;;;;23.51;75.89;99752.48;1826968;78;20836;-89
2022/07/11 09:46:57;;;;;;;;;;;;;;;23.57;75.40;99758.39;1829504;78;21244;-90
2022/07/11 09:49:33;;;;;;;5.10;4.62;;;;;;;23.62;75.31;99758.31;1826629;78;20403;-90
2022/07/11 09:52:13;;;;;;;7.83;4.92;;;;;;;23.66;75.13;99757.72;1826920;78;20970;-89
2022/07/11 09:55:01;;;;;;;7.35;4.85;;;;;;;23.70;74.76;99757.64;1826696;78;20912;-89
2022/07/11 09:57:36;;;;;;;8.30;5.97;;;;;;;23.71;74.52;99764.63;1827145;78;20939;-90
2022/07/11 10:00:11;;;;;;;7.62;5.40;;;;;;;23.78;74.63;99759.34;1827059;78;20932;-90
2022/07/11 10:02:38;;;;;;;5.10;4.58;;;;;;;23.88;74.76;99765.16;1826985;78;21396;-89
2022/07/11 10:05:06;;;;;;;35.52;15.65;;;;;;;23.99;73.89;99769.12;1826942;78;20891;-89
2022/07/11 10:07:33;;;;;;;94.37;15.88;;;;;;;24.07;73.26;99771.59;1826753;78;20895;-89
2022/07/11 10:10:02;;;;;;;20.72;6.55;;;;;;;24.12;72.20;99769.16;1826752;78;20935;-90
2022/07/11 10:12:31;;;;;;;66.47;11.48;;;;;;;24.19;71.40;99776.70;1827082;78;21148;-90
2022/07/11 10:15:06;;;;;;;10.28;5.15;;;;;;;24.28;70.89;99787.22;1826439;78;21447;-90
2022/07/11 10:18:09;;;;;;;36.98;7.55;;;;;;;24.35;70.75;99788.08;1826422;78;20923;-91
2022/07/11 10:21:18;;;;;;;14.87;5.80;;;;;;;24.38;70.72;99795.18;1825635;78;20993;-88
2022/07/11 10:24:02;;;;;;;10.50;6.22;;;;;;;24.42;70.53;99800.97;1785669;78;20864;-89
2022/07/11 10:26:55;;;;;;;;;;;;;;;24.43;70.03;99804.47;1829165;78;21146;-90
2022/07/11 10:29:35;;;;;;;8.65;5.40;;;;;;;24.40;69.93;99808.39;1826641;78;20382;-91
2022/07/11 10:32:08;;;;;;;13.53;5.75;;;;;;;24.33;70.13;99805.69;1826023;78;20847;-90
2022/07/11 10:34:36;;;;;;;16.50;6.85;;;;;;;24.28;70.33;99809.50;1825864;78;20844;-89
2022/07/11 10:37:07;;;;;;;40.85;9.00;;;;;;;24.27;70.40;99807.02;1825320;78;20903;-87
2022/07/11 10:39:37;;;;;;;7.92;5.62;;;;;;;24.22;70.79;99807.62;1825882;78;21163;-88
2022/07/11 10:42:08;;;;;;;5.33;4.92;;;;;;;24.24;71.00;99804.23;1825482;78;20919;-89
2022/07/11 10:44:54;;;;;;;8.68;6.20;;;;;;;24.32;71.13;99805.88;1825689;78;20884;-87
2022/07/11 10:47:36;;;;;;;6.37;5.78;;;;;;;24.44;70.76;99806.14;1826437;78;20942;-90
2022/07/11 10:50:15;;;;;;;6.40;5.83;;;;;;;24.52;70.25;99805.47;1825927;78;20947;-89
2022/07/11 10:52:42;;;;;;;6.47;5.87;;;;;;;24.61;69.85;99810.10;1825618;78;21828;-89
2022/07/11 10:55:30;;;;;;;7.45;5.37;;;;;;;24.65;70.21;99807.85;1825822;78;20927;-88
2022/07/11 10:58:23;;;;;;;6.20;5.47;;;;;;;24.58;69.85;99811.34;1826055;78;20907;-90
2022/07/11 11:01:10;;;;;;;114.52;20.40;;;;;;;24.53;69.89;99813.00;1826231;78;20931;-89
2022/07/11 11:03:40;;;;;;;48.25;11.33;;;;;;;24.46;69.70;99819.65;1803281;78;20935;-90
2022/07/11 11:06:07;;;;;;;7.20;5.75;;;;;;;24.63;69.86;99817.95;1826409;78;21377;-90
2022/07/11 11:08:40;;;;;;;6.22;5.12;;;;;;;24.78;70.04;99819.94;1825657;78;20875;-89
2022/07/11 11:11:35;;;;;;;5.60;5.20;;;;;;;24.90;69.46;99816.97;1826343;78;20884;-89
2022/07/11 11:14:19;;;;;;;8.70;5.53;;;;;;;25.00;68.65;99821.92;1826335;78;20971;-88
2022/07/11 11:16:48;;;;;;;9.45;5.70;;;;;;;25.06;68.72;99826.95;1826022;78;21408;-89
2022/07/11 11:19:50;;;;;;;12.40;5.85;;;;;;;25.13;68.78;99825.13;1825958;78;21262;-89
2022/07/11 11:22:19;;;;;;;10.08;6.72;;;;;;;25.20;68.53;99824.63;1814375;78;20928;-89
2022/07/11 11:24:52;;;;;;;24.57;8.95;;;;;;;25.29;67.38;99827.41;1826186;78;20967;-89
2022/07/11 11:27:25;;;;;;;33.10;11.08;;;;;;;25.36;67.09;99829.56;1825863;78;20954;-90
2022/07/11 11:29:56;;;;;;;19.67;11.03;;;;;;;25.40;66.50;99835.35;1824024;78;20903;-88
2022/07/11 11:32:38;;;;;;;18.45;16.00;;;;;;;25.36;66.65;99840.30;1822175;78;21294;-88
2022/07/11 11:35:03;;;;;;;9.73;8.43;;;;;;;25.35;66.11;99844.03;1820920;78;20911;-91
2022/07/11 11:37:31;;;;;;;11.55;10.40;;;;;;;25.34;65.73;99842.36;1821984;78;21425;-88
2022/07/11 11:40:02;;;;;;;98.75;20.97;;;;;;;25.27;65.50;99852.80;1822189;78;20985;-88
2022/07/11 11:42:28;;;;;;;81.57;15.58;;;;;;;25.20;65.46;99864.36;1820854;78;20986;-88
2022/07/11 11:44:59;;;;;;;15.48;9.70;;;;;;;25.06;65.72;99865.38;1821955;78;21280;-89
2022/07/11 11:47:31;;;;;;;26.62;12.13;;;;;;;24.87;65.82;99872.87;1821898;78;20883;-89
2022/07/11 11:49:59;;;;;;;39.88;13.30;;;;;;;24.66;66.47;99869.33;1822400;78;20888;-90
2022/07/11 11:52:28;;;;;;;12.20;10.48;;;;;;;24.40;67.53;99870.85;1822642;78;20866;-90